sensor_id;sensor_type;location;lat;lon;timestamp;pressure;altitude;pressure_sealevel;temperature;humidity
46876;BME280;32866;50.160;14.768;2023-04-07T00:02:03;99562.84;;;-0.29;100.00
46876;BME280;32866;50.160;14.768;2023-04-07T00:04:29;99610.00;;;0.08;100.00
46876;BME280;32866;50.160;14.768;2023-04-07T00:06:55;99613.59;;;0.15;100.00
46876;BME280;32866;50.160;14.768;2023-04-07T00:09:20;99612.00;;;0.11;100.00
46876;BME280;32866;50.160;14.768;2023-04-07T00:11:46;99582.13;;;0.23;100.00
46876;BME280;32866;50.160;14.768;2023-04-07T00:14:13;99598.66;;;0.48;100.00
46876;BME280;32866;50.160;14.768;2023-04-07T00:16:38;99563.38;;;0.04;100.00
46876;BME280;32866;50.160;14.768;2023-04-07T00:19:03;99555.09;;;0.16;100.00
46876;BME280;32866;50.160;14.768;2023-04-07T00:21:29;99570.19;;;0.51;100.00
46876;BME280;32866;50.160;14.768;2023-04-07T00:23:55;99604.03;;;0.75;100.00
46876;BME280;32866;50.160;14.768;2023-04-07T00:26:21;99569.09;;;0.25;100.00
46876;BME280;32866;50.160;14.768;2023-04-07T00:28:46;99554.41;;;0.23;100.00
46876;BME280;32866;50.160;14.768;2023-04-07T00:31:11;99604.50;;;0.50;100.00
46876;BME280;32866;50.160;14.768;2023-04-07T00:33:37;99594.66;;;0.65;100.00
46876;BME280;32866;50.160;14.768;2023-04-07T00:36:02;99569.19;;;0.32;100.00
46876;BME280;32866;50.160;14.768;2023-04-07T00:38:28;99556.47;;;0.06;100.00
46876;BME280;32866;50.160;14.768;2023-04-07T00:40:57;99583.38;;;0.56;100.00
46876;BME280;32866;50.160;14.768;2023-04-07T00:43:23;99583.16;;;0.42;100.00
46876;BME280;32866;50.160;14.768;2023-04-07T00:45:49;99581.03;;;0.54;100.00
46876;BME280;32866;50.160;14.768;2023-04-07T00:48:15;99522.53;;;0.02;100.00
46876;BME280;32866;50.160;14.768;2023-04-07T00:50:40;99576.38;;;0.25;100.00
46876;BME280;32866;50.160;14.768;2023-04-07T00:53:06;99541.38;;;0.28;100.00
46876;BME280;32866;50.160;14.768;2023-04-07T00:55:31;99542.84;;;0.22;100.00
46876;BME280;32866;50.160;14.768;2023-04-07T00:57:57;99564.81;;;0.24;100.00
46876;BME280;32866;50.160;14.768;2023-04-07T01:00:22;99515.34;;;0.40;100.00
46876;BME280;32866;50.160;14.768;2023-04-07T01:03:09;99568.94;;;0.75;100.00
46876;BME280;32866;50.160;14.768;2023-04-07T01:05:59;99533.09;;;0.41;100.00
46876;BME280;32866;50.160;14.768;2023-04-07T01:08:37;99557.09;;;0.83;100.00
46876;BME280;32866;50.160;14.768;2023-04-07T01:11:19;99554.53;;;0.94;100.00
46876;BME280;32866;50.160;14.768;2023-04-07T01:13:48;99551.06;;;0.93;100.00
46876;BME280;32866;50.160;14.768;2023-04-07T01:16:18;99524.09;;;0.63;100.00
46876;BME280;32866;50.160;14.768;2023-04-07T01:18:50;99555.16;;;0.84;100.00
46876;BME280;32866;50.160;14.768;2023-04-07T01:21:17;99559.94;;;0.94;100.00
46876;BME280;32866;50.160;14.768;2023-04-07T01:24:11;99553.63;;;0.83;100.00
46876;BME280;32866;50.160;14.768;2023-04-07T01:26:42;99511.69;;;0.55;100.00
46876;BME280;32866;50.160;14.768;2023-04-07T01:29:33;99554.22;;;0.99;100.00
46876;BME280;32866;50.160;14.768;2023-04-07T01:32:03;99554.66;;;1.05;100.00
46876;BME280;32866;50.160;14.768;2023-04-07T01:34:31;99553.94;;;1.11;100.00
46876;BME280;32866;50.160;14.768;2023-04-07T01:36:58;99541.81;;;1.32;100.00
46876;BME280;32866;50.160;14.768;2023-04-07T01:39:26;99544.09;;;1.30;100.00
46876;BME280;32866;50.160;14.768;2023-04-07T01:41:53;99545.69;;;1.31;100.00
46876;BME280;32866;50.160;14.768;2023-04-07T01:44:19;99538.50;;;1.08;100.00
46876;BME280;32866;50.160;14.768;2023-04-07T01:46:45;99549.22;;;1.01;100.00
46876;BME280;32866;50.160;14.768;2023-04-07T01:49:12;99518.09;;;0.77;100.00
46876;BME280;32866;50.160;14.768;2023-04-07T01:51:39;99551.91;;;1.01;100.00
46876;BME280;32866;50.160;14.768;2023-04-07T01:54:05;99528.19;;;1.18;100.00
46876;BME280;32866;50.160;14.768;2023-04-07T01:56:32;99476.47;;;0.74;100.00
46876;BME280;32866;50.160;14.768;2023-04-07T01:58:57;99523.56;;;1.18;100.00
46876;BME280;32866;50.160;14.768;2023-04-07T02:01:22;99522.06;;;1.21;100.00
46876;BME280;32866;50.160;14.768;2023-04-07T02:03:53;99520.41;;;1.09;100.00
46876;BME280;32866;50.160;14.768;2023-04-07T02:06:23;99530.22;;;1.28;100.00
46876;BME280;32866;50.160;14.768;2023-04-07T02:08:56;99529.50;;;1.35;100.00
46876;BME280;32866;50.160;14.768;2023-04-07T02:11:23;99527.16;;;1.33;100.00
46876;BME280;32866;50.160;14.768;2023-04-07T02:13:52;99532.56;;;1.33;99.56
46876;BME280;32866;50.160;14.768;2023-04-07T02:16:19;99514.75;;;1.25;100.00
46876;BME280;32866;50.160;14.768;2023-04-07T02:18:45;99520.56;;;1.30;100.00
46876;BME280;32866;50.160;14.768;2023-04-07T02:21:11;99482.88;;;1.00;100.00
46876;BME280;32866;50.160;14.768;2023-04-07T02:23:39;99507.78;;;1.24;100.00
46876;BME280;32866;50.160;14.768;2023-04-07T02:26:04;99479.94;;;1.13;100.00
46876;BME280;32866;50.160;14.768;2023-04-07T02:28:30;99503.94;;;1.25;100.00
46876;BME280;32866;50.160;14.768;2023-04-07T02:30:55;99508.97;;;1.26;100.00
46876;BME280;32866;50.160;14.768;2023-04-07T02:33:21;99458.19;;;0.98;100.00
46876;BME280;32866;50.160;14.768;2023-04-07T02:35:46;99493.16;;;1.25;100.00
46876;BME280;32866;50.160;14.768;2023-04-07T02:38:12;99466.69;;;1.00;100.00
46876;BME280;32866;50.160;14.768;2023-04-07T02:40:37;99467.53;;;1.08;100.00
46876;BME280;32866;50.160;14.768;2023-04-07T02:43:02;99499.34;;;1.29;100.00
46876;BME280;32866;50.160;14.768;2023-04-07T02:45:29;99509.44;;;1.36;100.00
46876;BME280;32866;50.160;14.768;2023-04-07T02:47:55;99510.13;;;1.25;100.00
46876;BME280;32866;50.160;14.768;2023-04-07T02:50:20;99511.09;;;1.47;100.00
46876;BME280;32866;50.160;14.768;2023-04-07T02:52:46;99497.66;;;1.14;100.00
46876;BME280;32866;50.160;14.768;2023-04-07T02:55:11;99494.97;;;1.14;100.00
46876;BME280;32866;50.160;14.768;2023-04-07T02:57:36;99479.94;;;1.13;100.00
46876;BME280;32866;50.160;14.768;2023-04-07T03:00:02;99508.72;;;1.42;100.00
46876;BME280;32866;50.160;14.768;2023-04-07T03:02:28;99504.81;;;1.36;100.00
46876;BME280;32866;50.160;14.768;2023-04-07T03:04:53;99501.66;;;1.27;100.00
46876;BME280;32866;50.160;14.768;2023-04-07T03:07:18;99504.81;;;1.33;100.00
46876;BME280;32866;50.160;14.768;2023-04-07T03:09:44;99471.75;;;1.05;100.00
46876;BME280;32866;50.160;14.768;2023-04-07T03:12:09;99509.03;;;1.34;100.00
46876;BME280;32866;50.160;14.768;2023-04-07T03:14:35;99487.53;;;1.03;100.00
46876;BME280;32866;50.160;14.768;2023-04-07T03:17:00;99499.97;;;1.11;100.00
46876;BME280;32866;50.160;14.768;2023-04-07T03:19:25;99453.44;;;0.84;100.00
46876;BME280;32866;50.160;14.768;2023-04-07T03:21:51;99465.44;;;0.90;100.00
46876;BME280;32866;50.160;14.768;2023-04-07T03:24:16;99460.56;;;1.03;100.00
46876;BME280;32866;50.160;14.768;2023-04-07T03:26:42;99499.31;;;1.25;100.00
46876;BME280;32866;50.160;14.768;2023-04-07T03:29:08;99470.44;;;0.88;100.00
46876;BME280;32866;50.160;14.768;2023-04-07T03:31:33;99457.31;;;0.87;100.00
46876;BME280;32866;50.160;14.768;2023-04-07T03:33:58;99494.09;;;1.47;100.00
46876;BME280;32866;50.160;14.768;2023-04-07T03:36:24;99491.06;;;1.56;100.00
46876;BME280;32866;50.160;14.768;2023-04-07T03:38:51;99474.06;;;1.48;100.00
46876;BME280;32866;50.160;14.768;2023-04-07T03:41:16;99486.81;;;1.51;100.00
46876;BME280;32866;50.160;14.768;2023-04-07T03:43:42;99483.63;;;1.38;100.00
46876;BME280;32866;50.160;14.768;2023-04-07T03:46:07;99461.44;;;1.15;100.00
46876;BME280;32866;50.160;14.768;2023-04-07T03:48:32;99466.84;;;1.15;100.00
46876;BME280;32866;50.160;14.768;2023-04-07T03:50:58;99452.72;;;0.91;100.00
46876;BME280;32866;50.160;14.768;2023-04-07T03:53:23;99466.00;;;1.10;100.00
46876;BME280;32866;50.160;14.768;2023-04-07T03:55:49;99470.47;;;1.33;100.00
46876;BME280;32866;50.160;14.768;2023-04-07T03:58:15;99484.84;;;1.44;100.00
46876;BME280;32866;50.160;14.768;2023-04-07T04:00:41;99481.44;;;1.55;100.00
46876;BME280;32866;50.160;14.768;2023-04-07T04:03:06;99435.16;;;1.08;100.00
46876;BME280;32866;50.160;14.768;2023-04-07T04:05:32;99453.22;;;1.04;100.00
46876;BME280;32866;50.160;14.768;2023-04-07T04:07:57;99484.91;;;1.55;100.00
46876;BME280;32866;50.160;14.768;2023-04-07T04:10:22;99441.72;;;1.10;100.00
46876;BME280;32866;50.160;14.768;2023-04-07T04:12:48;99484.16;;;1.55;100.00
46876;BME280;32866;50.160;14.768;2023-04-07T04:15:14;99486.66;;;1.33;100.00
46876;BME280;32866;50.160;14.768;2023-04-07T04:17:40;99482.91;;;1.45;100.00
46876;BME280;32866;50.160;14.768;2023-04-07T04:20:06;99489.53;;;1.55;100.00
46876;BME280;32866;50.160;14.768;2023-04-07T04:22:31;99493.78;;;1.56;100.00
46876;BME280;32866;50.160;14.768;2023-04-07T04:24:57;99459.69;;;1.37;100.00
46876;BME280;32866;50.160;14.768;2023-04-07T04:27:23;99487.25;;;1.60;100.00
46876;BME280;32866;50.160;14.768;2023-04-07T04:29:48;99484.09;;;1.47;100.00
46876;BME280;32866;50.160;14.768;2023-04-07T04:32:14;99485.00;;;1.66;100.00
46876;BME280;32866;50.160;14.768;2023-04-07T04:34:39;99481.06;;;1.56;100.00
46876;BME280;32866;50.160;14.768;2023-04-07T04:37:06;99507.00;;;1.64;100.00
46876;BME280;32866;50.160;14.768;2023-04-07T04:39:32;99449.34;;;1.46;99.06
46876;BME280;32866;50.160;14.768;2023-04-07T04:41:57;99475.44;;;1.27;100.00
46876;BME280;32866;50.160;14.768;2023-04-07T04:44:22;99482.63;;;1.61;98.34
46876;BME280;32866;50.160;14.768;2023-04-07T04:46:48;99491.91;;;1.63;96.11
46876;BME280;32866;50.160;14.768;2023-04-07T04:49:13;99491.16;;;1.63;96.88
46876;BME280;32866;50.160;14.768;2023-04-07T04:51:40;99472.50;;;1.47;99.54
46876;BME280;32866;50.160;14.768;2023-04-07T04:54:06;99471.00;;;1.50;100.00
46876;BME280;32866;50.160;14.768;2023-04-07T04:56:31;99493.44;;;1.61;100.00
46876;BME280;32866;50.160;14.768;2023-04-07T04:58:57;99495.03;;;1.69;100.00
46876;BME280;32866;50.160;14.768;2023-04-07T05:01:22;99481.84;;;1.57;100.00
46876;BME280;32866;50.160;14.768;2023-04-07T05:03:48;99481.06;;;1.53;100.00
46876;BME280;32866;50.160;14.768;2023-04-07T05:06:13;99460.91;;;1.43;100.00
46876;BME280;32866;50.160;14.768;2023-04-07T05:08:38;99464.03;;;1.48;100.00
46876;BME280;32866;50.160;14.768;2023-04-07T05:11:04;99491.31;;;1.84;100.00
46876;BME280;32866;50.160;14.768;2023-04-07T05:13:29;99476.47;;;1.64;100.00
46876;BME280;32866;50.160;14.768;2023-04-07T05:15:55;99442.19;;;1.68;100.00
46876;BME280;32866;50.160;14.768;2023-04-07T05:18:20;99483.66;;;2.01;100.00
46876;BME280;32866;50.160;14.768;2023-04-07T05:20:47;99507.75;;;2.20;100.00
46876;BME280;32866;50.160;14.768;2023-04-07T05:23:13;99464.84;;;2.15;100.00
46876;BME280;32866;50.160;14.768;2023-04-07T05:25:38;99474.63;;;2.45;100.00
46876;BME280;32866;50.160;14.768;2023-04-07T05:28:04;99481.63;;;2.57;100.00
46876;BME280;32866;50.160;14.768;2023-04-07T05:30:29;99475.06;;;2.58;97.40
46876;BME280;32866;50.160;14.768;2023-04-07T05:32:54;99474.66;;;2.59;95.92
46876;BME280;32866;50.160;14.768;2023-04-07T05:35:20;99466.19;;;2.65;93.39
46876;BME280;32866;50.160;14.768;2023-04-07T05:37:45;99464.66;;;2.78;96.38
46876;BME280;32866;50.160;14.768;2023-04-07T05:40:11;99454.59;;;2.68;93.97
46876;BME280;32866;50.160;14.768;2023-04-07T05:42:36;99474.81;;;3.17;92.26
46876;BME280;32866;50.160;14.768;2023-04-07T05:45:03;99483.28;;;3.05;91.51
46876;BME280;32866;50.160;14.768;2023-04-07T05:47:28;99450.44;;;3.13;93.20
46876;BME280;32866;50.160;14.768;2023-04-07T05:49:54;99487.19;;;3.47;92.00
46876;BME280;32866;50.160;14.768;2023-04-07T05:52:19;99438.47;;;3.25;95.08
46876;BME280;32866;50.160;14.768;2023-04-07T05:54:45;99434.59;;;3.33;90.37
46876;BME280;32866;50.160;14.768;2023-04-07T05:57:10;99464.75;;;3.43;89.57
46876;BME280;32866;50.160;14.768;2023-04-07T05:59:37;99479.47;;;3.34;90.88
46876;BME280;32866;50.160;14.768;2023-04-07T06:02:03;99436.13;;;3.09;90.04
46876;BME280;32866;50.160;14.768;2023-04-07T06:04:28;99484.88;;;3.27;93.57
46876;BME280;32866;50.160;14.768;2023-04-07T06:06:54;99481.00;;;3.50;92.86
46876;BME280;32866;50.160;14.768;2023-04-07T06:09:20;99465.53;;;3.43;92.58
46876;BME280;32866;50.160;14.768;2023-04-07T06:11:46;99488.75;;;3.51;92.95
46876;BME280;32866;50.160;14.768;2023-04-07T06:14:12;99466.69;;;3.31;93.12
46876;BME280;32866;50.160;14.768;2023-04-07T06:16:37;99457.78;;;3.34;91.38
46876;BME280;32866;50.160;14.768;2023-04-07T06:19:03;99460.50;;;3.27;92.04
46876;BME280;32866;50.160;14.768;2023-04-07T06:21:28;99477.53;;;3.67;90.12
46876;BME280;32866;50.160;14.768;2023-04-07T06:23:54;99460.88;;;3.55;90.88
46876;BME280;32866;50.160;14.768;2023-04-07T06:26:20;99480.25;;;3.71;94.19
46876;BME280;32866;50.160;14.768;2023-04-07T06:28:46;99445.78;;;3.53;89.33
46876;BME280;32866;50.160;14.768;2023-04-07T06:31:11;99458.56;;;3.71;87.16
46876;BME280;32866;50.160;14.768;2023-04-07T06:33:36;99425.66;;;3.65;85.87
46876;BME280;32866;50.160;14.768;2023-04-07T06:36:02;99479.38;;;4.10;86.16
46876;BME280;32866;50.160;14.768;2023-04-07T06:38:27;99427.56;;;3.68;84.93
46876;BME280;32866;50.160;14.768;2023-04-07T06:40:53;99446.91;;;3.85;85.10
46876;BME280;32866;50.160;14.768;2023-04-07T06:43:18;99434.47;;;3.98;82.57
46876;BME280;32866;50.160;14.768;2023-04-07T06:45:43;99453.81;;;4.15;85.07
46876;BME280;32866;50.160;14.768;2023-04-07T06:48:09;99449.16;;;4.22;83.03
46876;BME280;32866;50.160;14.768;2023-04-07T06:50:35;99439.06;;;4.23;79.62
46876;BME280;32866;50.160;14.768;2023-04-07T06:53:01;99464.53;;;4.47;79.68
46876;BME280;32866;50.160;14.768;2023-04-07T06:55:26;99461.06;;;4.43;82.42
46876;BME280;32866;50.160;14.768;2023-04-07T06:57:52;99437.00;;;4.49;80.12
46876;BME280;32866;50.160;14.768;2023-04-07T07:00:17;99427.31;;;4.44;78.23
46876;BME280;32866;50.160;14.768;2023-04-07T07:02:43;99430.84;;;4.44;76.62
46876;BME280;32866;50.160;14.768;2023-04-07T07:05:08;99448.53;;;4.67;78.16
46876;BME280;32866;50.160;14.768;2023-04-07T07:07:35;99461.88;;;5.10;77.05
46876;BME280;32866;50.160;14.768;2023-04-07T07:10:01;99440.78;;;5.29;76.83
46876;BME280;32866;50.160;14.768;2023-04-07T07:12:26;99429.34;;;5.03;75.29
46876;BME280;32866;50.160;14.768;2023-04-07T07:14:52;99462.28;;;5.05;74.75
46876;BME280;32866;50.160;14.768;2023-04-07T07:17:17;99441.31;;;5.09;73.32
46876;BME280;32866;50.160;14.768;2023-04-07T07:19:43;99424.56;;;5.18;75.34
46876;BME280;32866;50.160;14.768;2023-04-07T07:22:08;99452.50;;;5.18;71.72
46876;BME280;32866;50.160;14.768;2023-04-07T07:24:33;99434.00;;;4.99;72.56
46876;BME280;32866;50.160;14.768;2023-04-07T07:26:59;99478.91;;;5.18;73.92
46876;BME280;32866;50.160;14.768;2023-04-07T07:29:26;99485.84;;;5.23;73.08
46876;BME280;32866;50.160;14.768;2023-04-07T07:31:52;99476.09;;;5.29;73.65
46876;BME280;32866;50.160;14.768;2023-04-07T07:34:17;99470.13;;;5.48;75.61
46876;BME280;32866;50.160;14.768;2023-04-07T07:36:43;99490.44;;;5.78;74.80
46876;BME280;32866;50.160;14.768;2023-04-07T07:39:08;99464.19;;;5.61;73.19
46876;BME280;32866;50.160;14.768;2023-04-07T07:41:33;99488.47;;;5.82;70.30
46876;BME280;32866;50.160;14.768;2023-04-07T07:43:59;99489.28;;;5.79;72.36
46876;BME280;32866;50.160;14.768;2023-04-07T07:46:25;99489.06;;;6.04;70.96
46876;BME280;32866;50.160;14.768;2023-04-07T07:48:51;99499.00;;;5.80;69.30
46876;BME280;32866;50.160;14.768;2023-04-07T07:51:16;99453.56;;;5.77;70.94
46876;BME280;32866;50.160;14.768;2023-04-07T07:53:43;99495.75;;;5.96;70.71
46876;BME280;32866;50.160;14.768;2023-04-07T07:56:08;99502.91;;;5.75;70.96
46876;BME280;32866;50.160;14.768;2023-04-07T07:58:34;99475.50;;;5.55;70.89
46876;BME280;32866;50.160;14.768;2023-04-07T08:00:59;99497.53;;;5.68;73.29
46876;BME280;32866;50.160;14.768;2023-04-07T08:03:25;99467.03;;;5.46;72.70
46876;BME280;32866;50.160;14.768;2023-04-07T08:05:50;99460.75;;;5.53;74.49
46876;BME280;32866;50.160;14.768;2023-04-07T08:08:15;99476.31;;;5.52;72.92
46876;BME280;32866;50.160;14.768;2023-04-07T08:10:41;99514.31;;;6.05;70.21
46876;BME280;32866;50.160;14.768;2023-04-07T08:13:06;99490.00;;;5.87;72.11
46876;BME280;32866;50.160;14.768;2023-04-07T08:15:32;99517.63;;;6.23;68.92
46876;BME280;32866;50.160;14.768;2023-04-07T08:17:57;99478.91;;;6.12;67.26
46876;BME280;32866;50.160;14.768;2023-04-07T08:20:24;99498.41;;;6.03;69.12
46876;BME280;32866;50.160;14.768;2023-04-07T08:22:50;99503.59;;;6.28;69.86
46876;BME280;32866;50.160;14.768;2023-04-07T08:25:16;99482.63;;;6.25;67.30
46876;BME280;32866;50.160;14.768;2023-04-07T08:27:41;99500.44;;;6.34;67.60
46876;BME280;32866;50.160;14.768;2023-04-07T08:30:07;99510.84;;;6.42;66.87
46876;BME280;32866;50.160;14.768;2023-04-07T08:32:39;99505.53;;;6.62;66.56
46876;BME280;32866;50.160;14.768;2023-04-07T08:35:07;99507.44;;;6.96;67.51
46876;BME280;32866;50.160;14.768;2023-04-07T08:37:33;99466.16;;;6.71;66.32
46876;BME280;32866;50.160;14.768;2023-04-07T08:39:58;99505.75;;;7.06;65.38
46876;BME280;32866;50.160;14.768;2023-04-07T08:42:27;99470.88;;;6.94;66.16
46876;BME280;32866;50.160;14.768;2023-04-07T08:44:56;99486.00;;;6.98;64.85
46876;BME280;32866;50.160;14.768;2023-04-07T08:47:24;99505.59;;;6.90;66.51
46876;BME280;32866;50.160;14.768;2023-04-07T08:49:51;99490.72;;;6.63;67.18
46876;BME280;32866;50.160;14.768;2023-04-07T08:52:21;99501.34;;;6.85;69.47
46876;BME280;32866;50.160;14.768;2023-04-07T08:54:48;99498.97;;;6.87;65.84
46876;BME280;32866;50.160;14.768;2023-04-07T08:57:14;99478.94;;;6.74;66.28
46876;BME280;32866;50.160;14.768;2023-04-07T08:59:41;99496.06;;;6.74;64.69
46876;BME280;32866;50.160;14.768;2023-04-07T09:02:09;99493.53;;;6.87;65.20
46876;BME280;32866;50.160;14.768;2023-04-07T09:04:35;99504.88;;;7.13;64.31
46876;BME280;32866;50.160;14.768;2023-04-07T09:07:01;99503.44;;;7.04;64.95
46876;BME280;32866;50.160;14.768;2023-04-07T09:09:26;99506.50;;;7.06;65.31
46876;BME280;32866;50.160;14.768;2023-04-07T09:11:52;99509.34;;;7.27;65.76
46876;BME280;32866;50.160;14.768;2023-04-07T09:14:17;99499.88;;;7.35;64.05
46876;BME280;32866;50.160;14.768;2023-04-07T09:16:45;99494.63;;;7.48;61.86
46876;BME280;32866;50.160;14.768;2023-04-07T09:19:11;99458.69;;;7.29;61.89
46876;BME280;32866;50.160;14.768;2023-04-07T09:21:51;99500.66;;;7.59;59.90
46876;BME280;32866;50.160;14.768;2023-04-07T09:24:22;99484.13;;;7.46;61.82
46876;BME280;32866;50.160;14.768;2023-04-07T09:26:47;99476.75;;;7.90;58.75
46876;BME280;32866;50.160;14.768;2023-04-07T09:29:18;99500.53;;;8.33;57.81
46876;BME280;32866;50.160;14.768;2023-04-07T09:31:48;99494.00;;;8.87;58.93
46876;BME280;32866;50.160;14.768;2023-04-07T09:34:36;99494.00;;;8.87;56.84
46876;BME280;32866;50.160;14.768;2023-04-07T09:37:04;99482.19;;;9.27;55.64
46876;BME280;32866;50.160;14.768;2023-04-07T09:39:29;99492.88;;;9.71;58.19
46876;BME280;32866;50.160;14.768;2023-04-07T09:41:56;99482.25;;;9.40;52.79
46876;BME280;32866;50.160;14.768;2023-04-07T09:44:23;99482.44;;;9.16;52.91
46876;BME280;32866;50.160;14.768;2023-04-07T09:46:56;99490.97;;;9.18;53.27
46876;BME280;32866;50.160;14.768;2023-04-07T09:49:25;99485.28;;;8.93;53.57
46876;BME280;32866;50.160;14.768;2023-04-07T09:51:58;99482.44;;;8.80;53.32
46876;BME280;32866;50.160;14.768;2023-04-07T09:54:35;99483.31;;;8.93;53.72
46876;BME280;32866;50.160;14.768;2023-04-07T09:57:02;99478.81;;;8.66;53.93
46876;BME280;32866;50.160;14.768;2023-04-07T09:59:29;99477.44;;;8.95;53.33
46876;BME280;32866;50.160;14.768;2023-04-07T10:01:54;99459.69;;;9.03;54.47
46876;BME280;32866;50.160;14.768;2023-04-07T10:04:20;99474.75;;;9.44;50.77
46876;BME280;32866;50.160;14.768;2023-04-07T10:06:46;99476.72;;;9.10;52.11
46876;BME280;32866;50.160;14.768;2023-04-07T10:09:13;99478.09;;;9.35;51.61
46876;BME280;32866;50.160;14.768;2023-04-07T10:11:41;99474.41;;;9.25;50.61
46876;BME280;32866;50.160;14.768;2023-04-07T10:14:08;99470.56;;;9.39;51.64
46876;BME280;32866;50.160;14.768;2023-04-07T10:16:36;99459.03;;;9.15;50.75
46876;BME280;32866;50.160;14.768;2023-04-07T10:19:02;99475.94;;;9.10;50.72
46876;BME280;32866;50.160;14.768;2023-04-07T10:21:28;99444.06;;;8.87;51.57
46876;BME280;32866;50.160;14.768;2023-04-07T10:26:49;99474.75;;;9.44;51.57
46876;BME280;32866;50.160;14.768;2023-04-07T10:29:16;99469.28;;;9.27;51.06
46876;BME280;32866;50.160;14.768;2023-04-07T10:31:42;99460.22;;;9.47;50.21
46876;BME280;32866;50.160;14.768;2023-04-07T10:34:07;99462.03;;;9.54;50.90
46876;BME280;32866;50.160;14.768;2023-04-07T10:36:33;99435.63;;;9.47;49.99
46876;BME280;32866;50.160;14.768;2023-04-07T10:41:34;99445.00;;;9.46;52.03
46876;BME280;32866;50.160;14.768;2023-04-07T10:49:11;99429.63;;;9.03;51.16
46876;BME280;32866;50.160;14.768;2023-04-07T10:51:41;99449.97;;;9.51;52.81
46876;BME280;32866;50.160;14.768;2023-04-07T10:54:20;99455.44;;;9.35;51.45
46876;BME280;32866;50.160;14.768;2023-04-07T10:59:30;99454.25;;;9.19;53.34
46876;BME280;32866;50.160;14.768;2023-04-07T11:04:41;99460.19;;;9.63;51.78
46876;BME280;32866;50.160;14.768;2023-04-07T11:07:08;99452.44;;;9.62;52.86
46876;BME280;32866;50.160;14.768;2023-04-07T11:09:33;99458.91;;;9.68;52.09
46876;BME280;32866;50.160;14.768;2023-04-07T11:11:59;99447.72;;;9.62;52.83
46876;BME280;32866;50.160;14.768;2023-04-07T11:14:25;99451.41;;;10.01;52.87
46876;BME280;32866;50.160;14.768;2023-04-07T11:16:51;99459.56;;;10.18;51.75
46876;BME280;32866;50.160;14.768;2023-04-07T11:19:17;99454.81;;;10.06;51.65
46876;BME280;32866;50.160;14.768;2023-04-07T11:21:42;99445.88;;;10.18;50.41
46876;BME280;32866;50.160;14.768;2023-04-07T11:24:08;99449.38;;;10.48;50.88
46876;BME280;32866;50.160;14.768;2023-04-07T11:26:37;99451.00;;;10.32;50.32
46876;BME280;32866;50.160;14.768;2023-04-07T11:29:03;99443.78;;;10.22;51.41
46876;BME280;32866;50.160;14.768;2023-04-07T11:31:30;99449.25;;;10.09;53.27
46876;BME280;32866;50.160;14.768;2023-04-07T11:34:00;99448.28;;;10.16;54.06
46876;BME280;32866;50.160;14.768;2023-04-07T11:36:30;99439.97;;;9.90;54.56
46876;BME280;32866;50.160;14.768;2023-04-07T11:38:58;99444.97;;;9.79;54.78
46876;BME280;32866;50.160;14.768;2023-04-07T11:41:25;99434.41;;;9.94;54.83
46876;BME280;32866;50.160;14.768;2023-04-07T11:44:07;99444.47;;;9.68;56.08
46876;BME280;32866;50.160;14.768;2023-04-07T11:46:33;99441.84;;;9.47;56.15
46876;BME280;32866;50.160;14.768;2023-04-07T11:49:13;99441.59;;;9.42;56.24
46876;BME280;32866;50.160;14.768;2023-04-07T11:51:39;99434.41;;;9.32;57.41
46876;BME280;32866;50.160;14.768;2023-04-07T11:54:05;99439.53;;;9.13;58.18
46876;BME280;32866;50.160;14.768;2023-04-07T11:56:43;99436.03;;;9.13;58.70
46876;BME280;32866;50.160;14.768;2023-04-07T11:59:17;99403.97;;;8.64;58.84
46876;BME280;32866;50.160;14.768;2023-04-07T12:01:44;99430.09;;;8.81;60.71
46876;BME280;32866;50.160;14.768;2023-04-07T12:04:12;99443.03;;;8.97;59.89
46876;BME280;32866;50.160;14.768;2023-04-07T12:06:38;99437.66;;;8.94;59.67
46876;BME280;32866;50.160;14.768;2023-04-07T12:09:07;99436.47;;;9.11;59.58
46876;BME280;32866;50.160;14.768;2023-04-07T12:11:33;99418.94;;;8.92;60.43
46876;BME280;32866;50.160;14.768;2023-04-07T12:13:59;99444.81;;;8.87;61.30
46876;BME280;32866;50.160;14.768;2023-04-07T12:16:25;99441.56;;;8.93;61.47
46876;BME280;32866;50.160;14.768;2023-04-07T12:18:50;99427.88;;;8.76;60.33
46876;BME280;32866;50.160;14.768;2023-04-07T12:21:17;99439.78;;;9.02;60.87
46876;BME280;32866;50.160;14.768;2023-04-07T12:23:43;99413.84;;;9.10;61.06
46876;BME280;32866;50.160;14.768;2023-04-07T12:26:08;99422.97;;;9.04;59.74
46876;BME280;32866;50.160;14.768;2023-04-07T12:28:36;99397.16;;;9.05;59.46
46876;BME280;32866;50.160;14.768;2023-04-07T12:31:02;99439.53;;;9.13;59.54
46876;BME280;32866;50.160;14.768;2023-04-07T12:33:27;99417.16;;;9.35;59.35
46876;BME280;32866;50.160;14.768;2023-04-07T12:35:53;99435.53;;;9.51;58.10
46876;BME280;32866;50.160;14.768;2023-04-07T12:38:18;99432.28;;;9.85;58.24
46876;BME280;32866;50.160;14.768;2023-04-07T12:40:43;99434.88;;;9.76;58.38
46876;BME280;32866;50.160;14.768;2023-04-07T12:43:09;99434.25;;;9.39;57.92
46876;BME280;32866;50.160;14.768;2023-04-07T12:45:34;99438.31;;;9.63;58.55
46876;BME280;32866;50.160;14.768;2023-04-07T12:48:00;99439.84;;;9.64;59.48
46876;BME280;32866;50.160;14.768;2023-04-07T12:50:25;99423.94;;;9.76;59.05
46876;BME280;32866;50.160;14.768;2023-04-07T12:52:51;99437.59;;;9.92;58.24
46876;BME280;32866;50.160;14.768;2023-04-07T12:55:17;99443.31;;;9.81;59.00
46876;BME280;32866;50.160;14.768;2023-04-07T12:57:43;99444.59;;;10.23;57.95
46876;BME280;32866;50.160;14.768;2023-04-07T13:00:09;99417.03;;;10.00;60.08
46876;BME280;32866;50.160;14.768;2023-04-07T13:02:34;99417.69;;;10.05;58.38
46876;BME280;32866;50.160;14.768;2023-04-07T13:05:03;99443.25;;;10.14;59.32
46876;BME280;32866;50.160;14.768;2023-04-07T13:07:29;99437.06;;;9.97;60.95
46876;BME280;32866;50.160;14.768;2023-04-07T13:09:54;99430.25;;;9.73;60.57